Bw Prince — LADQ7 — position and weather

sailwx.info

Track history (hours):
 
Tides and Currents Weather Stations Pressure Air Temp Water Temp Dewpoint Dewpoint Depression Visibility Wind Speed Wind Dir Waves Ship Positions

Bw Prince

Last reported at 2017-Oct-18 03:16 UTC. Time now 2017-Oct-22 12:00 UTC.
Position N 01°18' E 103°21'.

Length 225 m; draft 7.6 m.

Type: Tanker. MMSI: 259708000.

Date/timePositionNaut miles runAvg speedWind from/ knotsBaromVisibWave heightAir tempDewpointWater temp
2017-Oct-18 03:16N 01°18' E 103°21'414.7
2017-Oct-18 03:00N 01°15' E 103°24'714.1
2017-Oct-18 02:30N 01°13' E 103°31'714.3
2017-Oct-18 01:59N 01°12' E 103°38'5 9.8
2017-Oct-18 01:31N 01°11' E 103°42'1 1.1
2017-Oct-18 00:58N 01°10' E 103°43'0 0.2
2017-Oct-18 00:25N 01°10' E 103°43'0 0.1
2017-Oct-17 23:55N 01°10' E 103°43'0 0.1
2017-Oct-17 23:25N 01°10' E 103°43'0 0.0
2017-Oct-17 22:58N 01°10' E 103°43'0 0.1
2017-Oct-17 20:07N 01°11' E 103°43'0 0.9
2017-Oct-17 19:55N 01°10' E 103°43'0 0.2
2017-Oct-17 18:25N 01°10' E 103°43'0 0.0
2017-Oct-17 17:52N 01°10' E 103°43'0 0.4
2017-Oct-17 17:25N 01°10' E 103°43'0 0.0
2017-Oct-17 13:01N 01°10' E 103°43'0 0.1
2017-Oct-17 12:58N 01°10' E 103°43'0 0.3
2017-Oct-17 12:22N 01°10' E 103°43'0 0.1
2017-Oct-17 11:58N 01°10' E 103°43'0 0.1
2017-Oct-17 11:25N 01°10' E 103°43'0 0.0
2017-Oct-17 10:52N 01°10' E 103°43'0 0.1
2017-Oct-17 10:28N 01°10' E 103°43'0 0.0
2017-Oct-17 09:58N 01°10' E 103°43'0 0.0
2017-Oct-17 09:28N 01°10' E 103°43'0 0.0
2017-Oct-17 08:58N 01°10' E 103°43'0 0.1
2017-Oct-17 08:28N 01°11' E 103°43'0 0.0
2017-Oct-17 07:58N 01°11' E 103°43'0 0.1
2017-Oct-17 07:28N 01°11' E 103°43'0 0.1
2017-Oct-17 06:55N 01°11' E 103°43'0 0.1
2017-Oct-17 06:28N 01°10' E 103°43'0 0.1
2017-Oct-17 05:55N 01°10' E 103°43'0 0.0
2017-Oct-17 05:28N 01°10' E 103°43'0 0.0
2017-Oct-17 04:58N 01°10' E 103°43'0 0.0
2017-Oct-17 04:28N 01°10' E 103°43'0 0.1
2017-Oct-17 03:58N 01°10' E 103°43'0 0.3
2017-Oct-17 03:30N 01°10' E 103°43'1 1.8
2017-Oct-17 03:00N 01°10' E 103°43'4 7.9
2017-Oct-17 02:30N 01°12' E 103°40'4 7.5
2017-Oct-17 02:00N 01°13' E 103°36'3 6.9
2017-Oct-17 01:30N 01°10' E 103°34'2 3.4
2017-Oct-17 01:00N 01°09' E 103°35'0 0.3
2017-Oct-17 00:29N 01°09' E 103°35'0 0.1
2017-Oct-16 22:41N 01°09' E 103°35'0 0.0
2017-Oct-16 22:26N 01°09' E 103°35'0 0.0
2017-Oct-16 21:44N 01°09' E 103°35'0 0.0
2017-Oct-16 20:08N 01°09' E 103°35'0 0.0
2017-Oct-16 19:56N 01°09' E 103°35'0 0.0
2017-Oct-16 19:17N 01°09' E 103°35'0 0.0
2017-Oct-16 18:41N 01°09' E 103°35'0 0.0
2017-Oct-16 18:26N 01°09' E 103°35'0 0.1
2017-Oct-16 17:56N 01°09' E 103°35'0 0.0
2017-Oct-16 15:32N 01°09' E 103°35'0 0.2
2017-Oct-16 15:30N 01°09' E 103°35'1 0.3
2017-Oct-16 12:45N 01°09' E 103°36'12 7.5
2017-Oct-16 11:11N 01°10' E 103°48'0 1.9
2017-Oct-16 10:59N 01°10' E 103°48'1 2.2
2017-Oct-16 10:29N 01°11' E 103°49'1 2.2
2017-Oct-16 09:54N 01°11' E 103°50'1 2.9
2017-Oct-16 09:30N 01°12' E 103°51'1 2.5
2017-Oct-16 08:59N 01°13' E 103°53'1 2.3
2017-Oct-16 08:29N 01°13' E 103°54'1 2.2
2017-Oct-16 08:00N 01°14' E 103°55'1 2.3
2017-Oct-16 07:29N 01°14' E 103°56'1 2.4
2017-Oct-16 07:00N 01°15' E 103°57'21 9.9
2017-Oct-16 04:51N 01°09' E 103°36'0 0.1
2017-Oct-16 02:21N 01°09' E 103°36'0 0.2
2017-Oct-16 02:00N 01°09' E 103°36'0 0.2
2017-Oct-16 01:30N 01°09' E 103°36'0 0.6
2017-Oct-16 01:00N 01°09' E 103°36'1 2.8
2017-Oct-16 00:30N 01°10' E 103°38'2 4.2
2017-Oct-16 00:01N 01°10' E 103°40'5 9.4
2017-Oct-15 23:30N 01°08' E 103°44'510.7
2017-Oct-15 23:01N 01°11' E 103°48'612.3
2017-Oct-15 22:31N 01°13' E 103°54'612.4
2017-Oct-15 22:00N 01°16' E 103°60'  
2017-Oct-08 16:52N 31°02' E 122°17'410.4
2017-Oct-08 16:29N 31°03' E 122°12'4 8.2
2017-Oct-08 16:00N 31°03' E 122°08'510.3
2017-Oct-08 15:30N 31°05' E 122°02'611.4
2017-Oct-08 15:00N 31°07' E 121°56'611.5
2017-Oct-08 14:30N 31°11' E 121°50'713.6
2017-Oct-08 14:01N 31°16' E 121°45'611.8
2017-Oct-08 13:30N 31°20' E 121°41'611.8
2017-Oct-08 13:00N 31°23' E 121°35'511.0
2017-Oct-08 12:30N 31°26' E 121°29'4 7.3
2017-Oct-08 12:01N 31°29' E 121°26'510.0
2017-Oct-08 11:30N 31°32' E 121°22'510.9
2017-Oct-08 11:00N 31°36' E 121°17'713.1
2017-Oct-08 10:30N 31°40' E 121°12'612.6
2017-Oct-08 10:00N 31°44' E 121°06'812.8
2017-Oct-08 09:24N 31°47' E 120°57'2410.0
2017-Oct-08 06:58N 32°01' E 120°34'611.9
2017-Oct-08 06:26N 32°02' E 120°27'  
Track history (hours):
 
Tides and Currents Weather Stations Pressure Air Temp Water Temp Dewpoint Dewpoint Depression Visibility Wind Speed Wind Dir Waves Ship Positions

Bw Prince

Last reported at 2017-Oct-18 03:16 UTC. Time now 2017-Oct-22 12:00 UTC.
Position N 01°18' E 103°21'.

Length 225 m; draft 7.6 m.

Type: Tanker. MMSI: 259708000.

Date/timePositionNaut miles runAvg speedWind from/ knotsBaromVisibWave heightAir tempDewpointWater temp
2017-Oct-18 03:16N 01°18' E 103°21'414.7
2017-Oct-18 03:00N 01°15' E 103°24'714.1
2017-Oct-18 02:30N 01°13' E 103°31'714.3
2017-Oct-18 01:59N 01°12' E 103°38'5 9.8
2017-Oct-18 01:31N 01°11' E 103°42'1 1.1
2017-Oct-18 00:58N 01°10' E 103°43'0 0.2
2017-Oct-18 00:25N 01°10' E 103°43'0 0.1
2017-Oct-17 23:55N 01°10' E 103°43'0 0.1
2017-Oct-17 23:25N 01°10' E 103°43'0 0.0
2017-Oct-17 22:58N 01°10' E 103°43'0 0.1
2017-Oct-17 20:07N 01°11' E 103°43'0 0.9
2017-Oct-17 19:55N 01°10' E 103°43'0 0.2
2017-Oct-17 18:25N 01°10' E 103°43'0 0.0
2017-Oct-17 17:52N 01°10' E 103°43'0 0.4
2017-Oct-17 17:25N 01°10' E 103°43'0 0.0
2017-Oct-17 13:01N 01°10' E 103°43'0 0.1
2017-Oct-17 12:58N 01°10' E 103°43'0 0.3
2017-Oct-17 12:22N 01°10' E 103°43'0 0.1
2017-Oct-17 11:58N 01°10' E 103°43'0 0.1
2017-Oct-17 11:25N 01°10' E 103°43'0 0.0
2017-Oct-17 10:52N 01°10' E 103°43'0 0.1
2017-Oct-17 10:28N 01°10' E 103°43'0 0.0
2017-Oct-17 09:58N 01°10' E 103°43'0 0.0
2017-Oct-17 09:28N 01°10' E 103°43'0 0.0
2017-Oct-17 08:58N 01°10' E 103°43'0 0.1
2017-Oct-17 08:28N 01°11' E 103°43'0 0.0
2017-Oct-17 07:58N 01°11' E 103°43'0 0.1
2017-Oct-17 07:28N 01°11' E 103°43'0 0.1
2017-Oct-17 06:55N 01°11' E 103°43'0 0.1
2017-Oct-17 06:28N 01°10' E 103°43'0 0.1
2017-Oct-17 05:55N 01°10' E 103°43'0 0.0
2017-Oct-17 05:28N 01°10' E 103°43'0 0.0
2017-Oct-17 04:58N 01°10' E 103°43'0 0.0
2017-Oct-17 04:28N 01°10' E 103°43'0 0.1
2017-Oct-17 03:58N 01°10' E 103°43'0 0.3
2017-Oct-17 03:30N 01°10' E 103°43'1 1.8
2017-Oct-17 03:00N 01°10' E 103°43'4 7.9
2017-Oct-17 02:30N 01°12' E 103°40'4 7.5
2017-Oct-17 02:00N 01°13' E 103°36'3 6.9
2017-Oct-17 01:30N 01°10' E 103°34'2 3.4
2017-Oct-17 01:00N 01°09' E 103°35'0 0.3
2017-Oct-17 00:29N 01°09' E 103°35'0 0.1
2017-Oct-16 22:41N 01°09' E 103°35'0 0.0
2017-Oct-16 22:26N 01°09' E 103°35'0 0.0
2017-Oct-16 21:44N 01°09' E 103°35'0 0.0
2017-Oct-16 20:08N 01°09' E 103°35'0 0.0
2017-Oct-16 19:56N 01°09' E 103°35'0 0.0
2017-Oct-16 19:17N 01°09' E 103°35'0 0.0
2017-Oct-16 18:41N 01°09' E 103°35'0 0.0
2017-Oct-16 18:26N 01°09' E 103°35'0 0.1
2017-Oct-16 17:56N 01°09' E 103°35'0 0.0
2017-Oct-16 15:32N 01°09' E 103°35'0 0.2
2017-Oct-16 15:30N 01°09' E 103°35'1 0.3
2017-Oct-16 12:45N 01°09' E 103°36'12 7.5
2017-Oct-16 11:11N 01°10' E 103°48'0 1.9
2017-Oct-16 10:59N 01°10' E 103°48'1 2.2
2017-Oct-16 10:29N 01°11' E 103°49'1 2.2
2017-Oct-16 09:54N 01°11' E 103°50'1 2.9
2017-Oct-16 09:30N 01°12' E 103°51'1 2.5
2017-Oct-16 08:59N 01°13' E 103°53'1 2.3
2017-Oct-16 08:29N 01°13' E 103°54'1 2.2
2017-Oct-16 08:00N 01°14' E 103°55'1 2.3
2017-Oct-16 07:29N 01°14' E 103°56'1 2.4
2017-Oct-16 07:00N 01°15' E 103°57'21 9.9
2017-Oct-16 04:51N 01°09' E 103°36'0 0.1
2017-Oct-16 02:21N 01°09' E 103°36'0 0.2
2017-Oct-16 02:00N 01°09' E 103°36'0 0.2
2017-Oct-16 01:30N 01°09' E 103°36'0 0.6
2017-Oct-16 01:00N 01°09' E 103°36'1 2.8
2017-Oct-16 00:30N 01°10' E 103°38'2 4.2
2017-Oct-16 00:01N 01°10' E 103°40'5 9.4
2017-Oct-15 23:30N 01°08' E 103°44'510.7
2017-Oct-15 23:01N 01°11' E 103°48'612.3
2017-Oct-15 22:31N 01°13' E 103°54'612.4
2017-Oct-15 22:00N 01°16' E 103°60'  
2017-Oct-08 16:52N 31°02' E 122°17'410.4
2017-Oct-08 16:29N 31°03' E 122°12'4 8.2
2017-Oct-08 16:00N 31°03' E 122°08'510.3
2017-Oct-08 15:30N 31°05' E 122°02'611.4
2017-Oct-08 15:00N 31°07' E 121°56'611.5
2017-Oct-08 14:30N 31°11' E 121°50'713.6
2017-Oct-08 14:01N 31°16' E 121°45'611.8
2017-Oct-08 13:30N 31°20' E 121°41'611.8
2017-Oct-08 13:00N 31°23' E 121°35'511.0
2017-Oct-08 12:30N 31°26' E 121°29'4 7.3
2017-Oct-08 12:01N 31°29' E 121°26'510.0
2017-Oct-08 11:30N 31°32' E 121°22'510.9
2017-Oct-08 11:00N 31°36' E 121°17'713.1
2017-Oct-08 10:30N 31°40' E 121°12'612.6
2017-Oct-08 10:00N 31°44' E 121°06'812.8
2017-Oct-08 09:24N 31°47' E 120°57'2410.0
2017-Oct-08 06:58N 32°01' E 120°34'611.9
2017-Oct-08 06:26N 32°02' E 120°27'  

Dump ship's entire track history